Time;durP1;ratioP1;P1;durP2;ratioP2;P2;SDS_P1;SDS_P2;PMS_P1;PMS_P2;Temp;Humidity;BMP_temperature;BMP_pressure;BME280_temperature;BME280_humidity;BME280_pressure;Samples;Min_cycle;Max_cycle;Signal;HPM_P1;HPM_P2
2022/01/14 00:01:56;;;;;;;0.20;0.20;;;;;;;23.56;17.23;97775.16;5035009;28;20375;-73
2022/01/14 00:04:22;;;;;;;0.10;0.10;;;;;;;23.62;17.25;97782.00;5035495;28;20033;-75
2022/01/14 00:06:47;;;;;;;0.13;0.13;;;;;;;23.67;17.00;97761.94;5035612;28;20033;-73
2022/01/14 00:09:14;;;;;;;0.10;0.10;;;;;;;23.61;16.94;97747.69;5038582;28;20033;-74
2022/01/14 00:11:44;;;;;;;0.10;0.10;;;;;;;23.59;16.88;97737.16;5034379;28;20029;-74
2022/01/14 00:14:21;;;;;;;0.10;0.10;;;;;;;23.67;16.80;97732.72;5034102;28;20116;-72
2022/01/14 00:16:47;;;;;;;0.10;0.10;;;;;;;23.58;16.88;97715.69;5033980;28;20037;-73
2022/01/14 00:19:12;;;;;;;0.10;0.10;;;;;;;23.66;16.76;97684.78;5034197;28;20029;-74
2022/01/14 00:21:40;;;;;;;0.10;0.10;;;;;;;23.57;16.79;97675.91;5034240;28;20026;-74
2022/01/14 00:32:09;;;;;;;0.25;0.20;;;;;;;23.53;16.71;97702.28;5033921;28;20044;-74
2022/01/14 00:34:34;;;;;;;0.10;0.10;;;;;;;23.63;16.60;97699.91;5033745;28;20052;-73
2022/01/14 00:37:00;;;;;;;0.22;0.10;;;;;;;23.58;16.54;97704.78;5033694;28;20029;-73
2022/01/14 00:39:25;;;;;;;0.10;0.10;;;;;;;23.59;16.60;97704.44;5034555;28;20036;-73
2022/01/14 00:41:51;;;;;;;0.10;0.10;;;;;;;23.61;16.64;97709.53;5034060;28;20025;-73
2022/01/14 00:44:16;;;;;;;0.10;0.10;;;;;;;23.60;16.37;97711.47;5033744;28;20029;-73
2022/01/14 00:46:43;;;;;;;0.10;0.10;;;;;;;23.67;16.33;97713.63;5033210;28;20057;-73
2022/01/14 00:49:09;;;;;;;0.10;0.10;;;;;;;23.56;16.37;97717.94;5033701;28;20026;-74
2022/01/14 00:51:35;;;;;;;0.10;0.10;;;;;;;23.64;16.48;97717.03;5033629;28;20463;-74
2022/01/14 00:54:00;;;;;;;0.10;0.10;;;;;;;23.62;16.38;97722.81;5034134;28;20087;-73
2022/01/14 00:59:16;;;;;;;0.10;0.10;;;;;;;23.54;16.45;97721.03;5033429;28;20029;-74
2022/01/14 01:01:45;;;;;;;0.10;0.10;;;;;;;23.60;16.44;97714.19;5033478;28;20022;-74
2022/01/14 01:04:12;;;;;;;0.10;0.10;;;;;;;23.59;16.57;97690.00;5033686;28;20025;-74
2022/01/14 01:06:38;;;;;;;0.10;0.10;;;;;;;23.50;16.49;97683.88;5034078;28;20028;-73
2022/01/14 01:09:07;;;;;;;0.10;0.10;;;;;;;23.59;16.56;97684.53;5016745;28;20467;-74
2022/01/14 01:11:36;;;;;;;0.10;0.10;;;;;;;23.56;16.42;97679.75;5033564;28;20041;-74
2022/01/14 01:14:13;;;;;;;0.10;0.10;;;;;;;23.58;16.24;97677.53;5033597;28;20052;-74
2022/01/14 01:16:39;;;;;;;0.10;0.10;;;;;;;23.50;16.50;97692.03;5033392;28;20053;-73
2022/01/14 01:19:04;;;;;;;0.20;0.20;;;;;;;23.52;16.46;97689.75;5034435;28;20026;-73
2022/01/14 01:21:29;;;;;;;0.10;0.10;;;;;;;23.56;16.29;97669.69;5033767;28;20022;-73
2022/01/14 01:23:55;;;;;;;0.10;0.10;;;;;;;23.51;16.24;97666.34;5033676;28;20491;-74
2022/01/14 01:26:42;;;;;;;0.10;0.10;;;;;;;23.50;16.06;97670.22;5016708;28;20017;-73
2022/01/14 01:31:36;;;;;;;0.17;0.17;;;;;;;23.55;15.96;97667.28;5034107;28;20037;-73
2022/01/14 01:34:06;;;;;;;0.10;0.10;;;;;;;23.53;16.04;97670.34;5033656;28;20025;-73
2022/01/14 01:36:32;;;;;;;0.10;0.10;;;;;;;23.58;16.01;97666.63;5034221;28;20051;-73
2022/01/14 01:38:57;;;;;;;0.10;0.10;;;;;;;23.59;16.11;97684.53;5018120;28;20029;-73
2022/01/14 01:41:23;;;;;;;0.10;0.10;;;;;;;23.56;15.80;97679.75;5037861;28;20107;-74
2022/01/14 01:43:51;;;;;;;0.20;0.20;;;;;;;23.55;15.84;97667.28;5020202;28;20456;-73
2022/01/14 01:46:20;;;;;;;0.17;0.17;;;;;;;23.53;15.88;97683.19;5037965;28;20049;-73
2022/01/14 01:48:51;;;;;;;0.10;0.10;;;;;;;23.53;15.71;97686.72;5038984;28;20151;-74
2022/01/14 01:51:16;;;;;;;0.10;0.10;;;;;;;23.54;15.63;97692.94;5038762;28;20032;-73
2022/01/14 01:53:42;;;;;;;0.10;0.10;;;;;;;23.50;15.64;97702.94;5039336;28;20025;-72
2022/01/14 01:56:07;;;;;;;0.10;0.10;;;;;;;23.57;15.47;97697.72;5038722;28;20387;-74
2022/01/14 01:58:33;;;;;;;0.10;0.10;;;;;;;23.54;15.69;97704.66;5038572;28;20029;-73
2022/01/14 02:00:58;;;;;;;0.20;0.20;;;;;;;23.47;15.33;97706.34;5041190;28;20076;-73
2022/01/14 02:03:23;;;;;;;0.10;0.10;;;;;;;23.59;15.37;97701.72;5041761;28;20022;-73
2022/01/14 02:05:49;;;;;;;0.20;0.20;;;;;;;23.56;15.47;97698.84;5041590;28;20021;-74
2022/01/14 02:08:14;;;;;;;0.10;0.10;;;;;;;23.53;15.46;97686.72;5043345;28;20029;-75
2022/01/14 02:10:40;;;;;;;0.20;0.20;;;;;;;23.54;15.35;97687.50;5040986;28;20022;-73
2022/01/14 02:13:06;;;;;;;0.20;0.20;;;;;;;23.56;15.44;97677.84;5040185;28;20039;-73
2022/01/14 02:23:33;;;;;;;;;;;;;;;23.81;14.79;97673.22;5048458;28;20048;-72
2022/01/14 02:25:58;;;;;;;0.10;0.10;;;;;;;23.55;15.43;97651.72;5049300;28;19917;-72
2022/01/14 02:28:23;;;;;;;0.32;0.13;;;;;;;23.49;15.10;97639.47;5050270;28;20035;-73
2022/01/14 02:30:49;;;;;;;0.10;0.10;;;;;;;23.61;15.24;97641.38;5051175;28;20025;-74
2022/01/14 02:33:15;;;;;;;0.10;0.10;;;;;;;23.53;15.09;97636.84;5039981;28;20380;-73
2022/01/14 02:35:43;;;;;;;0.10;0.10;;;;;;;23.50;15.13;97624.69;5036378;28;20045;-73
2022/01/14 02:38:09;;;;;;;0.40;0.28;;;;;;;23.48;15.00;97623.44;5035152;28;20052;-73
2022/01/14 02:40:34;;;;;;;0.10;0.10;;;;;;;23.52;15.19;97636.03;5036156;28;20027;-74
2022/01/14 02:43:01;;;;;;;0.17;0.17;;;;;;;23.48;14.90;97637.88;5035967;28;20376;-73
2022/01/14 02:45:32;;;;;;;0.10;0.10;;;;;;;23.55;14.89;97634.56;5008950;28;20056;-73
2022/01/14 02:47:57;;;;;;;0.13;0.13;;;;;;;23.50;14.93;97626.63;5016306;28;20041;-74
2022/01/14 02:50:25;;;;;;;0.20;0.20;;;;;;;23.49;14.84;97620.38;5015752;28;20389;-74
2022/01/14 02:55:23;;;;;;;0.20;0.20;;;;;;;23.47;14.84;97616.41;5015868;28;20117;-73
2022/01/14 02:57:51;;;;;;;0.10;0.10;;;;;;;23.49;14.73;97619.56;5016115;28;20109;-74
2022/01/14 03:00:18;;;;;;;0.10;0.10;;;;;;;23.49;14.85;97608.66;5015599;28;20033;-73
2022/01/14 03:02:45;;;;;;;0.20;0.20;;;;;;;23.52;14.68;97608.00;5015522;28;20113;-74
2022/01/14 03:05:10;;;;;;;0.20;0.20;;;;;;;23.53;14.68;97606.88;5015845;28;20053;-74
2022/01/14 03:07:37;;;;;;;0.10;0.10;;;;;;;23.46;14.98;97603.91;5015952;28;20030;-74
2022/01/14 03:10:03;;;;;;;0.20;0.20;;;;;;;23.48;14.67;97588.81;5015886;28;20121;-73
2022/01/14 03:12:29;;;;;;;0.10;0.10;;;;;;;23.48;14.67;97582.56;5015859;28;20412;-74
2022/01/14 03:14:54;;;;;;;0.10;0.10;;;;;;;23.51;14.62;97587.31;5015594;28;20030;-73
2022/01/14 03:17:20;;;;;;;0.32;0.10;;;;;;;23.46;14.32;97593.00;5015297;28;20109;-73
2022/01/14 03:19:46;;;;;;;0.10;0.10;;;;;;;23.51;14.46;97590.84;5015562;28;20033;-73
2022/01/14 03:22:27;;;;;;;0.10;0.10;;;;;;;23.48;14.47;97583.34;5015480;28;20037;-73
2022/01/14 03:27:18;;;;;;;0.55;0.20;;;;;;;23.45;14.29;97581.31;5015464;28;20384;-74
2022/01/14 03:29:44;;;;;;;0.15;0.15;;;;;;;23.47;14.43;97581.75;5015099;28;20033;-73
2022/01/14 03:32:10;;;;;;;0.40;0.20;;;;;;;23.45;14.42;97584.03;5015324;28;20033;-73
2022/01/14 03:34:35;;;;;;;0.30;0.20;;;;;;;23.42;14.16;97571.91;5015006;28;20026;-73
2022/01/14 03:37:00;;;;;;;0.20;0.20;;;;;;;23.45;14.27;97586.75;5015296;28;20026;-74
2022/01/14 03:39:26;;;;;;;0.20;0.20;;;;;;;23.54;14.05;97571.09;5014970;28;20471;-74
2022/01/14 03:41:51;;;;;;;0.25;0.20;;;;;;;23.43;14.07;97557.13;5015160;28;20022;-74
2022/01/14 03:44:17;;;;;;;0.10;0.10;;;;;;;23.52;13.84;97558.94;5015104;28;20034;-74
2022/01/14 03:46:42;;;;;;;0.10;0.10;;;;;;;23.59;13.89;97559.16;5034343;28;20037;-73
2022/01/14 03:49:08;;;;;;;0.15;0.15;;;;;;;23.49;13.93;97554.97;5034675;28;20033;-73
2022/01/14 03:51:33;;;;;;;0.20;0.20;;;;;;;23.53;13.84;97555.09;5035337;28;20112;-74
2022/01/14 03:53:59;;;;;;;0.20;0.20;;;;;;;23.57;13.54;97551.31;5034644;28;20430;-73
2022/01/14 03:56:28;;;;;;;0.20;0.20;;;;;;;23.46;13.84;97543.94;5034372;28;20517;-74
2022/01/14 03:58:53;;;;;;;0.30;0.30;;;;;;;23.42;13.42;97547.38;5034697;28;20371;-74
2022/01/14 04:01:22;;;;;;;0.10;0.10;;;;;;;23.44;13.52;97542.38;5033999;28;20025;-73
2022/01/14 04:03:48;;;;;;;0.98;0.30;;;;;;;23.41;13.61;97542.25;5034191;28;20024;-74
2022/01/14 04:06:13;;;;;;;0.20;0.20;;;;;;;23.45;13.65;97537.69;5034514;28;20115;-74
2022/01/14 04:08:39;;;;;;;0.20;0.20;;;;;;;23.47;13.51;97537.38;5034381;28;20452;-73
2022/01/14 04:11:04;;;;;;;0.10;0.10;;;;;;;23.40;13.61;97538.75;5034412;28;20108;-73
2022/01/14 04:13:49;;;;;;;0.50;0.20;;;;;;;23.50;13.69;97545.66;5034249;28;20029;-73
2022/01/14 04:16:14;;;;;;;;;;;;;;;23.77;13.28;97538.69;5020048;28;20068;-71
2022/01/14 04:18:40;;;;;;;0.30;0.20;;;;;;;23.56;13.39;97527.94;5034751;28;19934;-73
2022/01/14 04:21:05;;;;;;;0.50;0.20;;;;;;;23.59;13.50;97535.44;5034978;28;20024;-73
2022/01/14 04:23:31;;;;;;;0.20;0.20;;;;;;;23.52;13.38;97526.22;5035297;28;20029;-73
2022/01/14 04:25:56;;;;;;;0.73;0.30;;;;;;;23.60;13.28;97522.59;5036806;28;20029;-73
2022/01/14 04:28:23;;;;;;;0.60;0.30;;;;;;;23.62;13.56;97506.69;5034333;28;20026;-73
2022/01/14 04:30:54;;;;;;;0.20;0.20;;;;;;;23.66;13.31;97512.22;5034337;28;20025;-73
2022/01/14 04:33:19;;;;;;;0.17;0.17;;;;;;;23.69;13.32;97504.16;5033648;28;20104;-74
2022/01/14 04:35:44;;;;;;;0.20;0.20;;;;;;;23.76;13.35;97498.91;5033979;28;20104;-72
2022/01/14 04:38:10;;;;;;;0.20;0.20;;;;;;;23.76;13.33;97503.56;5033922;28;20030;-73
2022/01/14 04:40:35;;;;;;;0.20;0.20;;;;;;;23.78;13.27;97502.09;5033792;28;20455;-73
2022/01/14 04:43:01;;;;;;;0.35;0.30;;;;;;;23.83;13.32;97509.25;5033754;28;20026;-72
2022/01/14 04:48:12;;;;;;;0.20;0.20;;;;;;;23.89;13.16;97496.19;4953726;29;20043;-74
2022/01/14 04:50:38;;;;;;;0.10;0.10;;;;;;;23.85;13.32;97500.72;4937280;29;20042;-74
2022/01/14 04:53:03;;;;;;;0.20;0.20;;;;;;;23.88;12.96;97500.84;4953318;29;20039;-74
2022/01/14 04:55:28;;;;;;;0.30;0.20;;;;;;;23.88;12.98;97502.78;4953159;29;20038;-73
2022/01/14 04:57:54;;;;;;;0.20;0.20;;;;;;;23.82;13.05;97491.31;4937146;29;20139;-73
2022/01/14 05:00:22;;;;;;;0.10;0.10;;;;;;;23.93;13.22;97497.88;4953082;29;20039;-74
2022/01/14 05:02:47;;;;;;;0.20;0.20;;;;;;;24.06;13.03;97495.91;4934422;29;20067;-73
2022/01/14 05:05:16;;;;;;;0.35;0.20;;;;;;;24.00;12.81;97486.38;4933943;29;20059;-74
2022/01/14 05:07:43;;;;;;;0.88;0.20;;;;;;;24.05;12.92;97497.03;4934156;29;20044;-73
2022/01/14 05:10:19;;;;;;;0.22;0.22;;;;;;;24.05;13.31;97483.38;4934161;29;20032;-74
2022/01/14 05:12:45;;;;;;;0.20;0.20;;;;;;;24.04;12.89;97487.25;4934159;29;20403;-74
2022/01/14 05:15:11;;;;;;;0.25;0.10;;;;;;;24.04;13.00;97475.56;4937502;29;20031;-74
2022/01/14 05:17:37;;;;;;;0.30;0.30;;;;;;;24.11;12.95;97492.09;4922136;29;20502;-73
2022/01/14 05:20:03;;;;;;;0.32;0.28;;;;;;;24.17;12.80;97502.44;4938198;29;20094;-74
2022/01/14 05:22:29;;;;;;;0.20;0.13;;;;;;;24.21;12.74;97493.56;4937452;29;20398;-74
2022/01/14 05:24:54;;;;;;;0.30;0.20;;;;;;;24.13;12.84;97512.47;4965413;28;20034;-73
2022/01/14 05:27:20;;;;;;;0.20;0.20;;;;;;;24.14;13.06;97494.16;5018502;28;20034;-75
2022/01/14 05:29:45;;;;;;;0.17;0.17;;;;;;;24.19;12.96;97502.88;5018061;28;20462;-74
2022/01/14 05:32:13;;;;;;;0.20;0.20;;;;;;;24.24;12.94;97501.84;5016998;28;20026;-74
2022/01/14 05:34:39;;;;;;;0.10;0.10;;;;;;;24.19;12.78;97511.06;5017189;28;20025;-74
2022/01/14 05:37:05;;;;;;;0.30;0.30;;;;;;;24.24;13.01;97509.25;5016977;28;20022;-73
2022/01/14 05:39:30;;;;;;;0.52;0.30;;;;;;;24.18;13.33;97514.13;4999339;28;20033;-75
2022/01/14 05:41:56;;;;;;;0.35;0.20;;;;;;;24.19;13.48;97505.59;5016944;28;20033;-74
2022/01/14 05:44:23;;;;;;;0.75;0.40;;;;;;;24.22;13.14;97500.59;5017219;28;20042;-74
2022/01/14 05:46:49;;;;;;;0.25;0.20;;;;;;;24.22;13.34;97514.25;5017259;28;20030;-75
2022/01/14 05:49:15;;;;;;;0.80;0.30;;;;;;;24.12;13.27;97519.03;5017130;28;20033;-73
2022/01/14 05:51:40;;;;;;;0.20;0.20;;;;;;;24.18;13.40;97520.41;5016881;28;20042;-75
2022/01/14 05:54:06;;;;;;;0.38;0.20;;;;;;;24.17;13.44;97524.25;5016706;28;20132;-74
2022/01/14 05:56:31;;;;;;;0.30;0.20;;;;;;;24.27;12.94;97528.44;5000053;28;20030;-75
2022/01/14 05:58:57;;;;;;;0.30;0.30;;;;;;;24.16;12.99;97528.16;5016682;28;20030;-73
2022/01/14 06:01:22;;;;;;;0.35;0.20;;;;;;;24.35;12.73;97523.94;5022612;28;20025;-75
2022/01/14 06:03:47;;;;;;;0.75;0.20;;;;;;;24.43;13.07;97536.66;5036969;28;20030;-75
2022/01/14 06:06:13;;;;;;;0.30;0.20;;;;;;;24.31;13.10;97525.81;5035861;28;20159;-73
2022/01/14 06:08:38;;;;;;;0.30;0.30;;;;;;;24.43;13.05;97528.47;5036999;28;20040;-74
2022/01/14 06:11:04;;;;;;;0.30;0.20;;;;;;;24.70;13.18;97523.34;5037247;28;20051;-74
2022/01/14 06:13:29;;;;;;;0.75;0.30;;;;;;;24.60;13.11;97524.66;5036649;28;20033;-75
2022/01/14 06:15:54;;;;;;;0.30;0.30;;;;;;;24.51;13.43;97538.44;5036793;28;20032;-74
2022/01/14 06:18:20;;;;;;;1.00;0.40;;;;;;;24.63;12.89;97523.16;5036912;28;20033;-73
2022/01/14 06:20:46;;;;;;;0.50;0.30;;;;;;;24.45;13.10;97523.44;5036592;28;20407;-74
2022/01/14 06:23:12;;;;;;;0.57;0.30;;;;;;;24.46;12.94;97521.53;5036557;28;20025;-74
2022/01/14 06:25:37;;;;;;;0.47;0.30;;;;;;;24.55;12.87;97516.72;5035837;28;20354;-74
2022/01/14 06:28:03;;;;;;;0.95;0.30;;;;;;;24.47;13.00;97518.41;5035944;28;20029;-73
2022/01/14 06:30:28;;;;;;;0.40;0.20;;;;;;;24.54;12.81;97521.41;5036055;28;20026;-74
2022/01/14 06:32:54;;;;;;;0.73;0.30;;;;;;;24.55;12.81;97522.97;5035558;28;20025;-75
2022/01/14 06:35:19;;;;;;;2.28;0.50;;;;;;;24.44;13.09;97527.34;5036005;28;20033;-73
2022/01/14 06:37:45;;;;;;;0.57;0.40;;;;;;;24.47;12.78;97534.00;5035823;28;20037;-74
2022/01/14 06:40:10;;;;;;;0.75;0.47;;;;;;;24.54;12.77;97543.22;5036174;28;20022;-74
2022/01/14 06:42:36;;;;;;;0.73;0.40;;;;;;;24.54;12.70;97559.63;5035814;28;20025;-75
2022/01/14 06:45:03;;;;;;;0.75;0.50;;;;;;;24.54;13.01;97567.00;5035875;28;20403;-77
2022/01/14 06:47:28;;;;;;;1.00;0.50;;;;;;;24.52;12.86;97563.78;5034683;28;20040;-76
2022/01/14 06:49:54;;;;;;;1.92;0.70;;;;;;;24.46;12.55;97541.41;5035948;28;20022;-77
2022/01/14 06:52:30;;;;;;;1.10;0.60;;;;;;;24.72;12.77;97554.63;5039595;28;20017;-78
2022/01/14 06:54:57;;;;;;;1.48;0.63;;;;;;;24.68;12.61;97566.56;5039376;28;20037;-79
2022/01/14 06:57:24;;;;;;;2.17;0.70;;;;;;;24.60;12.81;97567.56;5041446;28;20025;-77
2022/01/14 06:59:51;;;;;;;0.60;0.40;;;;;;;24.80;12.34;97563.00;5040413;28;20088;-75
2022/01/14 07:02:16;;;;;;;0.73;0.40;;;;;;;24.71;12.42;97558.47;5040577;28;20025;-77
2022/01/14 07:04:42;;;;;;;2.30;0.50;;;;;;;24.61;12.53;97559.00;5040108;28;20351;-76
2022/01/14 07:07:07;;;;;;;0.73;0.40;;;;;;;24.80;12.44;97561.06;4988556;28;20059;-77
2022/01/14 07:09:34;;;;;;;1.02;0.70;;;;;;;24.68;12.34;97555.66;5019488;28;20037;-75
2022/01/14 07:12:16;;;;;;;2.88;1.50;;;;;;;24.73;12.52;97563.59;5037481;28;20026;-76
2022/01/14 07:15:01;;;;;;;2.08;1.10;;;;;;;24.83;12.47;97565.81;5040264;28;20041;-76
2022/01/14 07:17:33;;;;;;;1.73;0.80;;;;;;;24.69;12.28;97562.72;5042675;28;20471;-75
2022/01/14 07:20:05;;;;;;;0.95;0.68;;;;;;;24.70;12.24;97553.38;4988781;28;20075;-76
2022/01/14 07:22:41;;;;;;;3.15;0.70;;;;;;;24.85;12.09;97574.47;5036620;28;20077;-76
2022/01/14 07:25:24;;;;;;;2.25;0.95;;;;;;;24.85;12.33;97588.13;5041404;28;20332;-75
2022/01/14 07:27:58;;;;;;;1.70;1.00;;;;;;;24.82;12.11;97569.69;5024381;28;20064;-75
2022/01/14 07:30:24;;;;;;;3.45;1.15;;;;;;;24.86;12.38;97592.44;5038825;28;20032;-73
2022/01/14 07:32:50;;;;;;;3.88;1.13;;;;;;;24.90;12.39;97603.44;5035451;28;20037;-72
2022/01/14 07:35:17;;;;;;;1.55;0.90;;;;;;;24.87;12.49;97621.34;5036604;28;20029;-76
2022/01/14 07:37:43;;;;;;;0.88;0.50;;;;;;;24.64;12.45;97612.13;5038577;28;20053;-73
2022/01/14 07:40:09;;;;;;;0.60;0.50;;;;;;;24.80;12.31;97612.16;4982664;28;20120;-75
2022/01/14 07:42:37;;;;;;;0.95;0.50;;;;;;;24.89;12.05;97605.38;5035911;28;20057;-75
2022/01/14 07:45:06;;;;;;;1.88;0.85;;;;;;;24.83;12.37;97611.47;5034411;28;20123;-74
2022/01/14 07:47:32;;;;;;;4.93;1.83;;;;;;;24.79;12.84;97616.03;5035809;28;20363;-75
2022/01/14 07:49:58;;;;;;;5.32;2.10;;;;;;;24.76;12.59;97620.25;5035791;28;20058;-77
2022/01/14 07:52:23;;;;;;;3.25;1.73;;;;;;;24.75;12.71;97624.13;5035126;28;20433;-76
2022/01/14 07:54:50;;;;;;;11.07;4.40;;;;;;;25.01;12.17;97622.84;5034788;28;20029;-75
2022/01/14 07:57:17;;;;;;;13.25;5.05;;;;;;;24.81;12.50;97622.72;5034801;28;20509;-75
2022/01/14 07:59:43;;;;;;;14.10;5.63;;;;;;;24.82;12.49;97632.53;5034807;28;20072;-74
2022/01/14 08:02:08;;;;;;;10.95;4.07;;;;;;;25.00;11.98;97641.19;5016822;28;20028;-73
2022/01/14 08:04:35;;;;;;;8.35;3.47;;;;;;;25.00;12.25;97645.84;5034544;28;20025;-75
2022/01/14 08:07:08;;;;;;;6.50;3.03;;;;;;;24.85;12.38;97640.03;5016747;28;20033;-74
2022/01/14 08:09:36;;;;;;;6.03;3.05;;;;;;;25.09;12.35;97660.13;5034474;28;20108;-73
2022/01/14 08:12:01;;;;;;;8.25;2.70;;;;;;;24.99;12.44;97660.66;5034785;28;20421;-74
2022/01/14 08:14:27;;;;;;;6.72;2.50;;;;;;;24.91;12.44;97655.00;5036145;28;20025;-75
2022/01/14 08:16:53;;;;;;;7.72;2.95;;;;;;;25.01;12.67;97659.16;5035813;28;20025;-76
2022/01/14 08:19:18;;;;;;;7.60;2.90;;;;;;;24.94;12.49;97669.91;5001388;28;20104;-74
2022/01/14 08:21:43;;;;;;;48.90;19.23;;;;;;;24.98;12.46;97664.53;5036379;28;20026;-71
2022/01/14 08:24:12;;;;;;;42.13;14.70;;;;;;;24.93;12.68;97669.09;5018691;28;20052;-76
2022/01/14 08:26:37;;;;;;;28.95;12.05;;;;;;;25.07;12.42;97673.34;5036068;28;20025;-75
2022/01/14 08:29:08;;;;;;;22.02;8.38;;;;;;;25.02;12.55;97665.41;5039973;28;20052;-73
2022/01/14 08:31:33;;;;;;;22.23;8.25;;;;;;;25.13;12.41;97677.44;5037984;28;20057;-74
2022/01/14 08:34:00;;;;;;;25.15;9.38;;;;;;;25.01;12.37;97672.00;5037031;28;20021;-73
2022/01/14 08:36:28;;;;;;;24.00;9.80;;;;;;;25.09;12.53;97676.53;5035972;28;20025;-73
2022/01/14 08:38:53;;;;;;;21.83;8.45;;;;;;;25.04;12.26;97672.13;5021084;28;20107;-72
2022/01/14 08:41:19;;;;;;;20.60;7.40;;;;;;;25.08;12.60;97686.69;5033182;28;20494;-72
2022/01/14 08:43:48;;;;;;;18.98;7.75;;;;;;;25.23;12.42;97678.84;5035637;28;20100;-73
2022/01/14 08:46:14;;;;;;;16.60;6.78;;;;;;;25.04;12.10;97672.13;5035132;28;20053;-72
2022/01/14 08:48:39;;;;;;;15.38;6.53;;;;;;;25.02;12.11;97684.53;5035657;28;20045;-73
2022/01/14 08:51:05;;;;;;;17.35;7.40;;;;;;;25.12;12.07;97681.31;5038455;28;20022;-73
2022/01/14 08:53:33;;;;;;;18.48;7.72;;;;;;;25.17;12.05;97686.50;5022550;28;20028;-74
2022/01/14 08:55:58;;;;;;;19.88;7.82;;;;;;;25.18;12.04;97707.25;5038248;28;20057;-73
2022/01/14 08:58:24;;;;;;;21.85;8.15;;;;;;;25.12;12.27;97703.94;5020281;28;20067;-74
2022/01/14 09:00:51;;;;;;;12.95;6.18;;;;;;;25.08;11.81;97705.00;5034182;28;20048;-74
2022/01/14 09:03:16;;;;;;;11.75;4.28;;;;;;;25.13;12.02;97704.75;4989757;28;20475;-74
2022/01/14 09:05:43;;;;;;;8.63;4.28;;;;;;;25.16;12.11;97704.03;5034343;28;20143;-74
2022/01/14 09:08:08;;;;;;;6.63;3.65;;;;;;;25.05;12.38;97713.91;5039213;28;20028;-74
2022/01/14 09:10:33;;;;;;;4.47;2.13;;;;;;;25.07;11.84;97717.88;5016836;28;20479;-73
2022/01/14 09:12:59;;;;;;;4.28;1.92;;;;;;;25.01;11.96;97726.66;5034439;28;20037;-74
2022/01/14 09:15:24;;;;;;;5.30;2.17;;;;;;;24.92;12.13;97713.16;5017015;28;20029;-73
2022/01/14 09:17:50;;;;;;;11.43;4.65;;;;;;;25.04;11.97;97723.22;5017665;28;20043;-74
2022/01/14 09:20:15;;;;;;;14.23;4.75;;;;;;;25.08;11.84;97707.75;5035450;28;20022;-76
2022/01/14 09:22:47;;;;;;;11.43;4.10;;;;;;;25.07;12.02;97714.34;5034542;28;20025;-73
2022/01/14 09:25:13;;;;;;;9.23;3.70;;;;;;;25.20;11.67;97712.34;5034566;28;20044;-74
2022/01/14 09:27:38;;;;;;;5.68;2.67;;;;;;;25.13;11.82;97710.22;4960078;28;20461;-74
2022/01/14 09:30:05;;;;;;;4.65;2.03;;;;;;;25.08;11.75;97715.94;4992583;28;20038;-74
2022/01/14 09:32:31;;;;;;;2.13;1.38;;;;;;;25.16;11.74;97723.16;4991697;28;20034;-73
2022/01/14 09:34:56;;;;;;;4.78;1.50;;;;;;;25.02;12.02;97725.53;4991279;28;20030;-74
2022/01/14 09:37:21;;;;;;;1.67;0.90;;;;;;;25.00;11.91;97722.34;4991264;28;20515;-74
2022/01/14 09:39:47;;;;;;;1.27;0.80;;;;;;;25.04;11.83;97732.25;4991269;28;20531;-73
2022/01/14 09:42:13;;;;;;;1.10;0.60;;;;;;;25.02;11.83;97726.31;4991505;28;20078;-72
2022/01/14 09:44:38;;;;;;;1.88;0.80;;;;;;;25.07;11.97;97733.47;4991094;28;20038;-72
2022/01/14 09:47:04;;;;;;;0.90;0.50;;;;;;;25.21;11.67;97733.06;4992165;28;20393;-73
2022/01/14 09:49:29;;;;;;;2.17;0.60;;;;;;;25.06;11.97;97731.88;4992865;28;20498;-72
2022/01/14 09:51:55;;;;;;;2.20;0.65;;;;;;;25.20;11.68;97732.28;4992860;28;20033;-73
2022/01/14 09:54:20;;;;;;;0.82;0.43;;;;;;;25.10;11.83;97738.25;4993109;28;20038;-73
2022/01/14 09:56:46;;;;;;;1.13;0.47;;;;;;;25.11;11.70;97739.81;4995842;28;20030;-74
2022/01/14 09:59:12;;;;;;;0.68;0.40;;;;;;;25.16;11.86;97741.50;5023320;28;20037;-74
2022/01/14 10:01:42;;;;;;;2.30;0.50;;;;;;;25.26;11.73;97758.22;5036017;28;20075;-73
2022/01/14 10:04:08;;;;;;;3.20;0.98;;;;;;;25.15;12.05;97746.19;5036601;28;20041;-73
2022/01/14 10:06:33;;;;;;;3.80;1.50;;;;;;;25.20;11.73;97758.78;5035573;28;20102;-74
2022/01/14 10:09:24;;;;;;;4.63;1.05;;;;;;;25.17;11.62;97754.03;5036351;28;20029;-73
2022/01/14 10:12:16;;;;;;;8.32;1.80;;;;;;;25.21;11.98;97760.41;4995312;28;20164;-74
2022/01/14 10:14:52;;;;;;;11.13;3.75;;;;;;;25.20;11.75;97758.78;4979191;28;20042;-73
2022/01/14 10:17:17;;;;;;;12.98;4.47;;;;;;;25.14;12.12;97763.72;4995184;28;20138;-73
2022/01/14 10:19:44;;;;;;;7.30;3.10;;;;;;;25.26;11.75;97774.63;4996021;28;20042;-73
2022/01/14 10:22:25;;;;;;;5.10;1.55;;;;;;;25.32;11.89;97763.44;4994813;28;20063;-73
2022/01/14 10:25:08;;;;;;;2.35;1.50;;;;;;;25.20;11.73;97772.47;4994968;28;20157;-74
2022/01/14 10:27:38;;;;;;;3.45;1.65;;;;;;;25.08;12.26;97770.59;4994909;28;20043;-73
2022/01/14 10:30:34;;;;;;;3.85;1.80;;;;;;;25.07;12.08;97769.00;4994587;28;20034;-73
2022/01/14 10:33:07;;;;;;;3.60;1.70;;;;;;;24.97;12.07;97772.22;4992918;28;20035;-74
2022/01/14 10:35:37;;;;;;;3.85;1.98;;;;;;;24.97;12.18;97769.47;4995067;28;20058;-73
2022/01/14 10:38:05;;;;;;;7.75;3.00;;;;;;;24.96;11.99;97776.91;4978493;28;20092;-74
2022/01/14 10:40:32;;;;;;;4.22;2.00;;;;;;;24.84;12.59;97783.19;4978643;28;20028;-73
2022/01/14 10:43:05;;;;;;;14.40;4.63;;;;;;;24.89;12.24;97788.41;4994597;28;20038;-74
2022/01/14 10:45:30;;;;;;;10.88;3.28;;;;;;;25.01;12.07;97786.75;4994012;28;20449;-74
2022/01/14 10:48:04;;;;;;;4.75;2.33;;;;;;;25.06;12.04;97784.59;4998069;28;20082;-72
2022/01/14 10:50:41;;;;;;;3.72;1.40;;;;;;;25.30;11.93;97793.84;5036686;28;20456;-73
2022/01/14 10:53:11;;;;;;;5.28;1.17;;;;;;;25.20;11.80;97802.53;5038268;28;20052;-73
2022/01/14 10:55:48;;;;;;;5.10;2.15;;;;;;;25.29;11.83;97817.66;5041049;28;20056;-73
2022/01/14 10:58:36;;;;;;;3.85;1.52;;;;;;;25.32;12.12;97831.78;5038515;28;20458;-73
2022/01/14 11:01:06;;;;;;;5.72;2.42;;;;;;;25.37;11.92;97829.63;5038714;28;20061;-75
2022/01/14 11:03:41;;;;;;;3.22;1.10;;;;;;;25.45;11.76;97831.38;5039058;28;20033;-74
2022/01/14 11:06:28;;;;;;;1.45;0.70;;;;;;;25.52;12.07;97828.03;5040746;28;20092;-74
2022/01/14 11:09:24;;;;;;;1.08;0.65;;;;;;;25.47;11.90;97839.22;5039093;28;20424;-75
2022/01/14 11:11:50;;;;;;;1.35;0.70;;;;;;;25.42;11.78;97836.75;5025744;28;20475;-74
2022/01/14 11:14:15;;;;;;;0.88;0.60;;;;;;;25.42;11.84;97843.03;4984616;28;20034;-74
2022/01/14 11:16:42;;;;;;;2.17;0.60;;;;;;;25.37;11.71;97846.00;5020717;28;20030;-75
2022/01/14 11:19:28;;;;;;;1.52;0.43;;;;;;;25.19;11.94;97823.59;5037469;28;20426;-75
2022/01/14 11:24:40;;;;;;;2.95;1.05;;;;;;;25.38;11.86;97852.28;5007985;28;20039;-74
2022/01/14 11:27:06;;;;;;;3.38;1.02;;;;;;;25.47;12.00;97877.50;5018741;28;20060;-72
2022/01/14 11:29:43;;;;;;;2.45;0.98;;;;;;;25.44;12.03;97864.53;5035500;28;20029;-74
2022/01/14 11:32:09;;;;;;;0.88;0.60;;;;;;;25.45;11.69;97868.88;5035332;28;20025;-75
2022/01/14 11:34:40;;;;;;;1.15;0.50;;;;;;;25.37;12.00;97867.06;5035628;28;20032;-75
2022/01/14 11:37:07;;;;;;;1.77;0.80;;;;;;;25.45;11.74;97879.81;5037309;28;20028;-78
2022/01/14 11:39:36;;;;;;;1.30;0.70;;;;;;;25.40;12.03;97882.78;5020218;28;20078;-80
2022/01/14 11:42:04;;;;;;;1.23;0.70;;;;;;;25.50;11.69;97893.22;5038073;28;20029;-81
2022/01/14 11:45:00;;;;;;;1.27;0.60;;;;;;;25.60;11.64;97883.75;5038069;28;20490;-78
2022/01/14 11:47:42;;;;;;;0.80;0.50;;;;;;;25.47;11.88;97892.00;5033587;28;20127;-79
2022/01/14 11:50:23;;;;;;;1.17;0.55;;;;;;;25.58;11.92;97888.78;5035723;28;20490;-79
2022/01/14 11:52:49;;;;;;;1.80;0.50;;;;;;;25.47;11.96;97907.59;5037135;28;20413;-79
2022/01/14 11:55:32;;;;;;;3.03;0.50;;;;;;;25.48;11.77;97901.00;5040142;28;20091;-78
2022/01/14 11:58:13;;;;;;;3.53;1.00;;;;;;;25.57;11.71;97903.56;5040346;28;20029;-79
2022/01/14 12:00:42;;;;;;;2.53;1.10;;;;;;;25.46;11.88;97904.06;5037495;28;20083;-78
2022/01/14 12:03:11;;;;;;;0.85;0.60;;;;;;;25.49;12.08;97914.31;5019563;28;20045;-78
2022/01/14 12:05:37;;;;;;;1.08;0.70;;;;;;;25.46;11.69;97925.16;5038318;28;20034;-78
2022/01/14 12:08:07;;;;;;;1.35;0.68;;;;;;;25.55;11.93;97927.75;5034073;28;20033;-78
2022/01/14 12:10:43;;;;;;;0.90;0.80;;;;;;;25.60;11.61;97933.75;5035650;28;20037;-77